createdAt,value
2022-11-20T00:00:09.714Z,0.00
2022-11-20T00:01:09.714Z,0.00
2022-11-20T00:02:09.856Z,0.00
2022-11-20T00:03:09.682Z,0.00
2022-11-20T00:04:09.673Z,0.00
2022-11-20T00:05:09.680Z,0.00
2022-11-20T00:06:09.711Z,0.00
2022-11-20T00:07:09.679Z,0.00
2022-11-20T00:08:09.729Z,0.00
2022-11-20T00:09:09.622Z,0.00
2022-11-20T00:10:09.604Z,0.00
2022-11-20T00:11:15.322Z,0.00
2022-11-20T00:12:10.584Z,0.00
2022-11-20T00:13:09.564Z,0.00
2022-11-20T00:14:09.573Z,0.00
2022-11-20T00:15:09.554Z,0.00
2022-11-20T00:16:09.555Z,0.00
2022-11-20T00:17:09.523Z,0.00
2022-11-20T00:18:09.524Z,0.00
2022-11-20T00:19:09.514Z,0.00
2022-11-20T00:20:09.493Z,0.00
2022-11-20T00:21:09.496Z,0.00
2022-11-20T00:22:09.496Z,0.00
2022-11-20T00:23:09.455Z,0.00
2022-11-20T00:24:09.453Z,0.00
2022-11-20T00:25:09.444Z,0.00
2022-11-20T00:26:09.445Z,0.00
2022-11-20T00:27:09.415Z,0.00
2022-11-20T00:28:09.406Z,0.00
2022-11-20T00:29:09.406Z,0.00
2022-11-20T00:30:13.669Z,0.00
2022-11-20T00:31:10.375Z,0.00
2022-11-20T00:32:09.386Z,0.00
2022-11-20T00:33:09.353Z,0.00
2022-11-20T00:34:09.356Z,0.00
2022-11-20T00:35:09.364Z,0.00
2022-11-20T00:36:09.346Z,0.00
2022-11-20T00:37:09.332Z,0.00
2022-11-20T00:38:09.317Z,0.00
2022-11-20T00:39:09.304Z,0.00
2022-11-20T00:40:09.325Z,0.00
2022-11-20T00:41:09.327Z,0.00
2022-11-20T00:42:09.257Z,0.00
2022-11-20T00:43:09.289Z,0.00
2022-11-20T00:44:09.266Z,0.00
2022-11-20T00:45:09.225Z,0.00
2022-11-20T00:46:09.218Z,0.00
2022-11-20T00:47:09.199Z,0.00
2022-11-20T00:48:09.209Z,0.00
2022-11-20T00:49:09.207Z,0.00
2022-11-20T00:50:09.205Z,0.00
2022-11-20T00:51:09.158Z,0.00
2022-11-20T00:52:09.167Z,0.00
2022-11-20T00:53:09.265Z,0.00
2022-11-20T00:54:09.167Z,0.00
2022-11-20T00:55:09.127Z,0.00
2022-11-20T00:56:09.116Z,0.00
2022-11-20T00:57:09.108Z,0.00
2022-11-20T00:58:14.187Z,0.00
2022-11-20T00:59:10.087Z,0.00
2022-11-20T01:00:09.078Z,0.00
2022-11-20T01:01:09.167Z,0.00
2022-11-20T01:02:09.061Z,0.00
2022-11-20T01:03:09.039Z,0.00
2022-11-20T01:04:09.059Z,0.00
2022-11-20T01:05:09.020Z,0.00
2022-11-20T01:06:09.018Z,0.00
2022-11-20T01:07:09.042Z,0.00
2022-11-20T01:08:08.999Z,0.00
2022-11-20T01:09:08.969Z,0.00
2022-11-20T01:10:08.970Z,0.00
2022-11-20T01:11:08.961Z,0.00
2022-11-20T01:12:08.958Z,0.00
2022-11-20T01:13:08.929Z,0.00
2022-11-20T01:14:08.952Z,0.00
2022-11-20T01:15:08.933Z,0.00
2022-11-20T01:16:08.911Z,0.00
2022-11-20T01:17:08.901Z,0.00
2022-11-20T01:18:08.931Z,0.00
2022-11-20T01:19:08.880Z,0.00
2022-11-20T01:20:08.870Z,0.00
2022-11-20T01:21:08.868Z,0.00
2022-11-20T01:22:08.838Z,0.00
2022-11-20T01:23:08.871Z,0.00
2022-11-20T01:24:08.843Z,0.00
2022-11-20T01:25:08.803Z,0.00
2022-11-20T01:26:08.790Z,0.00
2022-11-20T01:27:08.780Z,0.00
2022-11-20T01:28:08.771Z,0.00
2022-11-20T01:29:08.792Z,0.00
2022-11-20T01:30:08.763Z,0.00
2022-11-20T01:31:08.752Z,0.00
2022-11-20T01:32:08.733Z,0.00
2022-11-20T01:33:08.712Z,0.00
2022-11-20T01:34:08.721Z,0.00
2022-11-20T01:35:08.731Z,0.00
2022-11-20T01:36:08.690Z,0.00
2022-11-20T01:37:08.673Z,0.00
2022-11-20T01:38:08.682Z,0.00
2022-11-20T01:39:08.653Z,0.00
2022-11-20T01:40:08.645Z,0.00
2022-11-20T01:41:08.663Z,0.00
2022-11-20T01:42:10.366Z,0.00
2022-11-20T01:43:08.611Z,0.00
2022-11-20T01:44:08.763Z,0.00
2022-11-20T01:45:08.601Z,0.00
2022-11-20T01:46:08.593Z,0.00
2022-11-20T01:47:08.617Z,0.00
2022-11-20T01:48:08.564Z,0.00
2022-11-20T01:49:08.553Z,0.00
2022-11-20T01:50:08.554Z,0.00
2022-11-20T01:51:08.542Z,0.00
2022-11-20T01:52:08.521Z,0.00
2022-11-20T01:53:08.514Z,0.00
2022-11-20T01:54:08.524Z,0.00
2022-11-20T01:55:08.613Z,0.00
2022-11-20T01:56:08.482Z,0.00
2022-11-20T01:57:08.461Z,0.00
2022-11-20T01:58:08.474Z,0.00
2022-11-20T01:59:08.451Z,0.00
2022-11-20T02:00:08.445Z,0.00
2022-11-20T02:01:08.468Z,0.00
2022-11-20T02:02:08.426Z,0.00
2022-11-20T02:03:08.434Z,0.00
2022-11-20T02:04:08.392Z,0.00
2022-11-20T02:05:08.545Z,0.00
2022-11-20T02:06:08.485Z,0.00
2022-11-20T02:07:08.432Z,0.00
2022-11-20T02:08:08.489Z,0.00
2022-11-20T02:09:08.356Z,0.00
2022-11-20T02:10:08.336Z,0.00
2022-11-20T02:11:08.327Z,0.00
2022-11-20T02:12:08.316Z,0.00
2022-11-20T02:13:08.294Z,0.00
2022-11-20T02:14:08.319Z,0.00
2022-11-20T02:15:08.416Z,0.00
2022-11-20T02:16:08.276Z,0.00
2022-11-20T02:17:08.264Z,0.00
2022-11-20T02:18:08.339Z,0.00
2022-11-20T02:19:08.236Z,0.00
2022-11-20T02:20:08.226Z,0.00
2022-11-20T02:21:08.216Z,0.00
2022-11-20T02:22:08.215Z,0.00
2022-11-20T02:23:08.187Z,0.00
2022-11-20T02:24:08.187Z,0.00
2022-11-20T02:25:08.169Z,0.00
2022-11-20T02:26:08.176Z,0.00
2022-11-20T02:27:08.156Z,0.00
2022-11-20T02:28:08.152Z,0.00
2022-11-20T02:29:08.127Z,0.00
2022-11-20T02:30:08.129Z,0.00
2022-11-20T02:31:08.107Z,0.00
2022-11-20T02:32:08.116Z,0.00
2022-11-20T02:33:08.077Z,0.00
2022-11-20T02:34:08.089Z,0.00
2022-11-20T02:35:08.074Z,0.00
2022-11-20T02:36:08.059Z,0.00
2022-11-20T02:37:08.039Z,0.00
2022-11-20T02:38:08.028Z,0.00
2022-11-20T02:39:08.028Z,0.00
2022-11-20T02:40:08.060Z,0.00
2022-11-20T02:41:08.013Z,0.00
2022-11-20T02:42:08.022Z,0.00
2022-11-20T02:43:08.012Z,0.00
2022-11-20T02:44:08.003Z,0.00
2022-11-20T02:45:07.977Z,0.00
2022-11-20T02:46:07.975Z,0.00
2022-11-20T02:47:07.965Z,0.00
2022-11-20T02:48:07.962Z,0.00
2022-11-20T02:49:07.943Z,0.00
2022-11-20T02:50:07.922Z,0.00
2022-11-20T02:51:07.904Z,0.00
2022-11-20T02:52:07.915Z,0.00
2022-11-20T02:53:07.914Z,0.00
2022-11-20T02:54:07.882Z,0.00
2022-11-20T02:55:07.874Z,0.00
2022-11-20T02:56:07.894Z,0.00
2022-11-20T02:57:07.855Z,0.00
2022-11-20T02:58:07.834Z,0.00
2022-11-20T02:59:07.823Z,0.00
2022-11-20T03:00:07.842Z,0.00
2022-11-20T03:01:07.832Z,0.00
2022-11-20T03:02:07.845Z,0.00
2022-11-20T03:03:07.775Z,0.00
2022-11-20T03:04:07.784Z,0.00
2022-11-20T03:05:07.775Z,0.00
2022-11-20T03:06:07.762Z,0.00
2022-11-20T03:07:07.804Z,0.00
2022-11-20T03:08:07.746Z,0.00
2022-11-20T03:09:07.735Z,0.00
2022-11-20T03:10:07.716Z,0.00
2022-11-20T03:11:07.715Z,0.00
2022-11-20T03:12:07.692Z,0.00
2022-11-20T03:13:07.686Z,0.00
2022-11-20T03:14:07.675Z,0.00
2022-11-20T03:15:07.667Z,0.00
2022-11-20T03:16:07.668Z,0.00
2022-11-20T03:17:07.656Z,0.00
2022-11-20T03:18:07.645Z,0.00
2022-11-20T03:19:08.066Z,0.00
2022-11-20T03:20:07.608Z,0.00
2022-11-20T03:21:07.593Z,0.00
2022-11-20T03:22:07.588Z,0.00
2022-11-20T03:23:07.597Z,0.00
2022-11-20T03:24:07.567Z,0.00
2022-11-20T03:25:07.556Z,0.00
2022-11-20T03:26:07.547Z,0.00
2022-11-20T03:27:07.527Z,0.00
2022-11-20T03:28:07.535Z,0.00
2022-11-20T03:29:07.525Z,0.00
2022-11-20T03:30:07.507Z,0.00
2022-11-20T03:31:07.508Z,0.00
2022-11-20T03:32:07.501Z,0.00
2022-11-20T03:33:07.474Z,0.00
2022-11-20T03:34:07.478Z,0.00
2022-11-20T03:35:07.447Z,0.00
2022-11-20T03:36:07.460Z,0.00
2022-11-20T03:37:07.448Z,0.00
2022-11-20T03:38:07.428Z,0.00
2022-11-20T03:39:07.408Z,0.00
2022-11-20T03:40:07.459Z,0.00
2022-11-20T03:41:07.399Z,0.00
2022-11-20T03:42:07.417Z,0.00
2022-11-20T03:43:07.370Z,0.00
2022-11-20T03:44:07.368Z,0.00
2022-11-20T03:45:07.342Z,0.00
2022-11-20T03:46:07.328Z,0.00
2022-11-20T03:47:07.560Z,0.00
2022-11-20T03:48:07.307Z,0.00
2022-11-20T03:49:07.299Z,0.00
2022-11-20T03:50:07.279Z,0.00
2022-11-20T03:51:07.285Z,0.00
2022-11-20T03:52:07.289Z,0.00
2022-11-20T03:53:07.259Z,0.00
2022-11-20T03:54:07.271Z,0.00
2022-11-20T03:55:07.250Z,0.00
2022-11-20T03:56:07.239Z,0.00
2022-11-20T03:57:07.231Z,0.00
2022-11-20T03:58:07.248Z,0.00
2022-11-20T03:59:07.200Z,0.00
2022-11-20T04:00:07.461Z,0.00
2022-11-20T04:01:07.179Z,0.00
2022-11-20T04:02:07.229Z,0.00
2022-11-20T04:03:07.161Z,0.00
2022-11-20T04:04:07.180Z,0.00
2022-11-20T04:05:07.141Z,0.00
2022-11-20T04:06:07.131Z,0.00
2022-11-20T04:07:07.207Z,0.00
2022-11-20T04:08:07.091Z,0.00
2022-11-20T04:09:07.103Z,0.00
2022-11-20T04:10:07.102Z,0.00
2022-11-20T04:11:07.062Z,0.00
2022-11-20T04:12:07.071Z,0.00
2022-11-20T04:13:07.071Z,0.00
2022-11-20T04:14:07.050Z,0.00
2022-11-20T04:15:07.052Z,0.00
2022-11-20T04:16:07.049Z,0.00
2022-11-20T04:17:07.022Z,0.00
2022-11-20T04:18:07.008Z,0.00
2022-11-20T04:19:06.993Z,0.00
2022-11-20T04:20:06.994Z,0.00
2022-11-20T04:21:06.981Z,0.00
2022-11-20T04:22:06.943Z,0.00
2022-11-20T04:23:06.946Z,0.00
2022-11-20T04:24:06.943Z,0.00
2022-11-20T04:25:06.931Z,0.00
2022-11-20T04:26:06.937Z,0.00
2022-11-20T04:27:06.904Z,0.00
2022-11-20T04:28:06.901Z,0.00
2022-11-20T04:29:06.883Z,0.00
2022-11-20T04:30:06.871Z,0.00
2022-11-20T04:31:06.895Z,0.00
2022-11-20T04:32:06.854Z,0.00
2022-11-20T04:33:06.834Z,0.00
2022-11-20T04:34:06.824Z,0.00
2022-11-20T04:35:06.824Z,0.00
2022-11-20T04:36:06.815Z,0.00
2022-11-20T04:37:06.824Z,0.00
2022-11-20T04:38:06.785Z,0.00
2022-11-20T04:39:06.788Z,0.00
2022-11-20T04:40:06.772Z,0.00
2022-11-20T04:41:06.755Z,0.00
2022-11-20T04:42:06.751Z,0.00
2022-11-20T04:43:06.724Z,0.00
2022-11-20T04:44:06.719Z,0.00
2022-11-20T04:45:06.724Z,0.00
2022-11-20T04:46:06.707Z,0.00
2022-11-20T04:47:06.695Z,0.00
2022-11-20T04:48:06.672Z,0.00
2022-11-20T04:49:06.694Z,0.00
2022-11-20T04:50:06.705Z,0.00
2022-11-20T04:51:06.642Z,0.00
2022-11-20T04:52:06.663Z,0.00
2022-11-20T04:53:06.617Z,0.00
2022-11-20T04:54:06.605Z,0.00
2022-11-20T04:55:06.627Z,0.00
2022-11-20T04:56:06.595Z,0.00
2022-11-20T04:57:11.345Z,0.00
2022-11-20T04:58:07.566Z,0.00
2022-11-20T04:59:06.578Z,0.00
2022-11-20T05:00:06.565Z,0.00
2022-11-20T05:01:06.612Z,0.00
2022-11-20T05:02:06.649Z,0.00
2022-11-20T05:03:06.518Z,0.00
2022-11-20T05:04:06.513Z,0.00
2022-11-20T05:05:06.506Z,0.00
2022-11-20T05:06:06.485Z,0.00
2022-11-20T05:07:06.525Z,0.00
2022-11-20T05:08:06.470Z,0.00
2022-11-20T05:09:06.727Z,0.00
2022-11-20T05:10:06.458Z,0.00
2022-11-20T05:11:06.429Z,0.00
2022-11-20T05:12:06.427Z,0.00
2022-11-20T05:13:06.424Z,0.00
2022-11-20T05:14:06.414Z,0.00
2022-11-20T05:15:06.445Z,0.00
2022-11-20T05:16:06.380Z,0.00
2022-11-20T05:17:06.370Z,0.00
2022-11-20T05:18:06.377Z,0.00
2022-11-20T05:19:06.367Z,0.00
2022-11-20T05:20:06.337Z,0.00
2022-11-20T05:21:06.339Z,0.00
2022-11-20T05:22:06.330Z,0.00
2022-11-20T05:23:06.328Z,0.00
2022-11-20T05:24:06.319Z,0.00
2022-11-20T05:25:06.279Z,0.00
2022-11-20T05:26:06.287Z,0.00
2022-11-20T05:27:06.290Z,0.00
2022-11-20T05:28:06.399Z,0.00
2022-11-20T05:29:06.259Z,0.00
2022-11-20T05:30:06.228Z,0.00
2022-11-20T05:31:06.525Z,0.00
2022-11-20T05:32:06.210Z,0.00
2022-11-20T05:33:06.217Z,0.00
2022-11-20T05:34:06.227Z,0.00
2022-11-20T05:35:06.274Z,0.00
2022-11-20T05:36:06.179Z,0.00
2022-11-20T05:37:06.199Z,0.00
2022-11-20T05:38:06.140Z,0.00
2022-11-20T05:39:06.151Z,0.00
2022-11-20T05:40:06.130Z,0.00
2022-11-20T05:41:06.147Z,0.00
2022-11-20T05:42:06.120Z,0.00
2022-11-20T05:43:06.090Z,0.00
2022-11-20T05:44:06.081Z,0.00
2022-11-20T05:45:06.088Z,0.00
2022-11-20T05:46:06.061Z,0.00
2022-11-20T05:47:06.070Z,0.00
2022-11-20T05:48:06.040Z,0.00
2022-11-20T05:49:06.048Z,0.00
2022-11-20T05:50:06.010Z,0.00
2022-11-20T05:51:06.011Z,0.00
2022-11-20T05:52:06.011Z,0.00
2022-11-20T05:53:05.991Z,0.00
2022-11-20T05:54:05.991Z,0.00
2022-11-20T05:55:05.962Z,0.00
2022-11-20T05:56:05.960Z,0.00
2022-11-20T05:57:06.015Z,0.00
2022-11-20T05:58:05.933Z,0.00
2022-11-20T05:59:05.940Z,0.00
2022-11-20T06:00:05.912Z,0.00
2022-11-20T06:01:05.922Z,0.00
2022-11-20T06:02:05.883Z,0.00
2022-11-20T06:03:05.973Z,0.00
2022-11-20T06:04:05.864Z,0.00
2022-11-20T06:05:05.869Z,0.00
2022-11-20T06:06:05.994Z,0.00
2022-11-20T06:07:05.933Z,0.00
2022-11-20T06:08:05.825Z,0.00
2022-11-20T06:09:05.829Z,0.00
2022-11-20T06:10:05.815Z,0.00
2022-11-20T06:11:05.813Z,0.00
2022-11-20T06:12:05.813Z,0.00
2022-11-20T06:13:05.988Z,0.00
2022-11-20T06:14:05.774Z,0.00
2022-11-20T06:15:05.761Z,0.00
2022-11-20T06:16:05.753Z,0.00
2022-11-20T06:17:05.741Z,4.00
2022-11-20T06:18:05.733Z,4.00
2022-11-20T06:19:05.712Z,4.00
2022-11-20T06:20:05.717Z,8.00
2022-11-20T06:21:05.715Z,4.00
2022-11-20T06:22:05.674Z,8.00
2022-11-20T06:23:05.685Z,8.00
2022-11-20T06:24:05.674Z,8.00
2022-11-20T06:25:05.655Z,12.00
2022-11-20T06:26:05.652Z,16.00
2022-11-20T06:27:05.624Z,16.00
2022-11-20T06:28:05.625Z,20.00
2022-11-20T06:29:05.643Z,24.00
2022-11-20T06:30:05.585Z,28.00
2022-11-20T06:31:05.606Z,32.00
2022-11-20T06:32:05.578Z,32.00
2022-11-20T06:33:05.566Z,36.00
2022-11-20T06:34:05.557Z,40.00
2022-11-20T06:35:05.578Z,40.00
2022-11-20T06:36:10.422Z,48.00
2022-11-20T06:37:06.535Z,48.00
2022-11-20T06:38:05.521Z,56.00
2022-11-20T06:39:05.527Z,56.00
2022-11-20T06:40:05.486Z,60.00
2022-11-20T06:41:05.529Z,68.00
2022-11-20T06:42:05.484Z,76.00
2022-11-20T06:43:05.466Z,88.00
2022-11-20T06:44:05.436Z,92.00
2022-11-20T06:45:05.437Z,100.00
2022-11-20T06:46:05.429Z,112.00
2022-11-20T06:47:05.862Z,124.00
2022-11-20T06:48:05.497Z,140.00
2022-11-20T06:49:05.401Z,148.00
2022-11-20T06:50:05.398Z,160.00
2022-11-20T06:51:05.390Z,168.00
2022-11-20T06:52:05.389Z,176.00
2022-11-20T06:53:05.367Z,188.00
2022-11-20T06:54:05.354Z,212.00
2022-11-20T06:55:05.358Z,236.00
2022-11-20T06:56:05.328Z,260.00
2022-11-20T06:57:06.043Z,284.00
2022-11-20T06:58:05.311Z,300.00
2022-11-20T06:59:05.330Z,324.00
2022-11-20T07:00:05.297Z,344.00
2022-11-20T07:01:05.441Z,360.00
2022-11-20T07:02:05.269Z,372.00
2022-11-20T07:03:05.264Z,380.00
2022-11-20T07:04:05.351Z,400.00
2022-11-20T07:05:05.229Z,412.00
2022-11-20T07:06:05.236Z,424.00
2022-11-20T07:07:05.263Z,424.00
2022-11-20T07:08:05.190Z,432.00
2022-11-20T07:09:09.902Z,424.00
2022-11-20T07:10:06.491Z,436.00
2022-11-20T07:11:05.168Z,468.00
2022-11-20T07:12:05.150Z,496.00
2022-11-20T07:13:05.159Z,520.00
2022-11-20T07:14:05.140Z,568.00
2022-11-20T07:15:05.161Z,628.00
2022-11-20T07:16:05.119Z,640.00
2022-11-20T07:17:05.118Z,636.00
2022-11-20T07:18:05.080Z,648.00
2022-11-20T07:19:05.071Z,668.00
2022-11-20T07:20:05.071Z,672.00
2022-11-20T07:21:05.181Z,652.00
2022-11-20T07:22:05.050Z,624.00
2022-11-20T07:23:05.061Z,652.00
2022-11-20T07:24:05.021Z,680.00
2022-11-20T07:25:05.010Z,672.00
2022-11-20T07:26:05.061Z,696.00
2022-11-20T07:27:05.000Z,700.00
2022-11-20T07:28:05.001Z,668.00
2022-11-20T07:29:04.995Z,680.00
2022-11-20T07:30:04.971Z,688.00
2022-11-20T07:31:04.989Z,672.00
2022-11-20T07:32:04.931Z,684.00
2022-11-20T07:33:04.931Z,652.00
2022-11-20T07:34:04.952Z,648.00
2022-11-20T07:35:04.912Z,648.00
2022-11-20T07:36:04.891Z,684.00
2022-11-20T07:37:10.057Z,720.00
2022-11-20T07:38:05.882Z,808.00
2022-11-20T07:39:04.862Z,840.00
2022-11-20T07:40:04.870Z,832.00
2022-11-20T07:41:04.870Z,948.00
2022-11-20T07:42:05.812Z,1096.00
2022-11-20T07:43:04.902Z,1388.00
2022-11-20T07:44:04.832Z,1776.00
2022-11-20T07:45:04.805Z,1600.00
2022-11-20T07:46:05.514Z,1420.00
2022-11-20T07:47:04.803Z,1312.00
2022-11-20T07:48:05.763Z,1172.00
2022-11-20T07:49:04.784Z,1124.00
2022-11-20T07:50:04.773Z,1052.00
2022-11-20T07:51:04.766Z,988.00
2022-11-20T07:52:07.193Z,912.00
2022-11-20T07:53:04.772Z,740.00
2022-11-20T07:54:04.747Z,636.00
2022-11-20T07:55:04.734Z,568.00
2022-11-20T07:56:04.752Z,560.00
2022-11-20T07:57:05.262Z,572.00
2022-11-20T07:58:04.797Z,576.00
2022-11-20T07:59:04.705Z,512.00
2022-11-20T08:00:04.663Z,476.00
2022-11-20T08:01:04.730Z,472.00
2022-11-20T08:02:04.644Z,508.00
2022-11-20T08:03:04.617Z,568.00
2022-11-20T08:04:04.616Z,728.00
2022-11-20T08:05:04.605Z,760.00
2022-11-20T08:06:04.585Z,744.00
2022-11-20T08:07:04.628Z,804.00
2022-11-20T08:08:04.593Z,716.00
2022-11-20T08:09:05.297Z,656.00
2022-11-20T08:10:04.576Z,640.00
2022-11-20T08:11:04.895Z,588.00
2022-11-20T08:12:04.515Z,624.00
2022-11-20T08:13:06.115Z,688.00
2022-11-20T08:14:04.535Z,876.00
2022-11-20T08:15:09.787Z,1116.00
2022-11-20T08:16:05.489Z,1280.00
2022-11-20T08:17:05.178Z,1392.00
2022-11-20T08:18:29.366Z,1420.00
2022-11-20T08:19:06.159Z,1496.00
2022-11-20T08:20:04.446Z,1460.00
2022-11-20T08:21:05.154Z,1460.00
2022-11-20T08:22:04.437Z,1516.00
2022-11-20T08:23:05.388Z,1472.00
2022-11-20T08:24:04.428Z,1484.00
2022-11-20T08:25:05.099Z,1516.00
2022-11-20T08:26:04.397Z,1568.00
2022-11-20T08:27:05.077Z,1332.00
2022-11-20T08:28:15.722Z,1296.00
2022-11-20T08:29:05.388Z,1312.00
2022-11-20T08:30:04.350Z,1312.00
2022-11-20T08:31:04.601Z,1240.00
2022-11-20T08:32:04.328Z,1232.00
2022-11-20T08:33:04.307Z,1364.00
2022-11-20T08:34:08.886Z,1392.00
2022-11-20T08:35:04.269Z,1492.00
2022-11-20T08:36:04.299Z,1576.00
2022-11-20T08:37:04.262Z,1608.00
2022-11-20T08:38:04.250Z,1992.00
2022-11-20T08:39:04.257Z,2404.00
2022-11-20T08:40:04.239Z,2772.00
2022-11-20T08:41:04.262Z,2836.00
2022-11-20T08:42:04.210Z,2624.00
2022-11-20T08:43:04.193Z,2820.00
2022-11-20T08:44:04.181Z,2792.00
2022-11-20T08:45:04.169Z,2628.00
2022-11-20T08:46:04.179Z,2576.00
2022-11-20T08:47:04.167Z,2920.00
2022-11-20T08:48:04.383Z,3308.00
2022-11-20T08:49:04.140Z,3088.00
2022-11-20T08:50:04.140Z,2760.00
2022-11-20T08:51:04.125Z,2368.00
2022-11-20T08:52:04.139Z,2316.00
2022-11-20T08:53:04.083Z,2364.00
2022-11-20T08:54:04.118Z,2396.00
2022-11-20T08:55:04.076Z,2328.00
2022-11-20T08:56:04.062Z,2280.00
2022-11-20T08:57:04.050Z,2272.00
2022-11-20T08:58:04.036Z,2220.00
2022-11-20T09:00:06.733Z,2108.00
2022-11-20T09:01:04.095Z,2016.00
2022-11-20T09:02:04.002Z,1812.00
2022-11-20T09:03:03.991Z,1744.00
2022-11-20T09:04:04.012Z,1724.00
2022-11-20T09:05:04.002Z,1904.00
2022-11-20T09:06:04.003Z,2060.00
2022-11-20T09:07:03.997Z,2116.00
2022-11-20T09:08:03.941Z,2072.00
2022-11-20T09:09:06.822Z,2064.00
2022-11-20T09:10:23.013Z,2492.00
2022-11-20T09:11:04.903Z,2868.00
2022-11-20T09:12:03.885Z,2684.00
2022-11-20T09:13:03.882Z,2628.00
2022-11-20T09:14:04.063Z,2548.00
2022-11-20T09:15:03.846Z,2416.00
2022-11-20T09:16:03.862Z,2244.00
2022-11-20T09:17:03.843Z,2096.00
2022-11-20T09:18:03.832Z,2124.00
2022-11-20T09:20:04.832Z,1924.00
2022-11-20T09:21:03.833Z,2212.00
2022-11-20T09:22:03.794Z,2124.00
2022-11-20T09:23:03.764Z,2036.00
2022-11-20T09:24:03.850Z,1996.00
2022-11-20T09:25:03.754Z,2084.00
2022-11-20T09:26:04.455Z,2052.00
2022-11-20T09:27:03.766Z,2028.00
2022-11-20T09:28:04.427Z,1908.00
2022-11-20T09:29:03.736Z,1780.00
2022-11-20T09:30:04.493Z,1616.00
2022-11-20T09:31:03.725Z,1432.00
2022-11-20T09:32:04.478Z,1312.00
2022-11-20T09:33:03.679Z,1192.00
2022-11-20T09:34:04.595Z,1208.00
2022-11-20T09:35:03.667Z,1256.00
2022-11-20T09:36:03.880Z,1256.00
2022-11-20T09:37:06.396Z,1312.00
2022-11-20T09:38:04.315Z,1308.00
2022-11-20T09:39:03.619Z,1332.00
2022-11-20T09:40:04.594Z,1220.00
2022-11-20T09:41:03.607Z,1372.00
2022-11-20T09:42:03.638Z,1188.00
2022-11-20T09:43:03.575Z,1056.00
2022-11-20T09:44:04.543Z,912.00
2022-11-20T09:45:03.540Z,840.00
2022-11-20T09:46:03.626Z,808.00
2022-11-20T09:47:03.507Z,720.00
2022-11-20T09:48:03.542Z,688.00
2022-11-20T09:49:03.527Z,720.00
2022-11-20T09:50:03.487Z,808.00
2022-11-20T09:51:03.508Z,1028.00
2022-11-20T09:52:03.460Z,828.00
2022-11-20T09:53:03.460Z,764.00
2022-11-20T09:54:03.428Z,724.00
2022-11-20T09:55:03.428Z,940.00
2022-11-20T09:56:03.457Z,1008.00
2022-11-20T09:57:03.428Z,1092.00
2022-11-20T09:58:03.397Z,1092.00
2022-11-20T09:59:03.386Z,1008.00
2022-11-20T10:00:03.380Z,1020.00
2022-11-20T10:01:03.397Z,1240.00
2022-11-20T10:02:03.358Z,1124.00
2022-11-20T10:03:03.351Z,1176.00
2022-11-20T10:04:03.329Z,1028.00
2022-11-20T10:05:03.329Z,992.00
2022-11-20T10:06:03.326Z,904.00
2022-11-20T10:07:31.467Z,888.00
2022-11-20T10:08:04.446Z,888.00
2022-11-20T10:09:03.288Z,800.00
2022-11-20T10:10:03.264Z,820.00
2022-11-20T10:11:03.250Z,808.00
2022-11-20T10:12:03.260Z,784.00
2022-11-20T10:13:03.268Z,644.00
2022-11-20T10:14:03.220Z,652.00
2022-11-20T10:15:03.223Z,652.00
2022-11-20T10:16:03.253Z,600.00
2022-11-20T10:17:03.192Z,568.00
2022-11-20T10:18:03.221Z,584.00
2022-11-20T10:19:03.181Z,596.00
2022-11-20T10:20:03.178Z,652.00
2022-11-20T10:21:03.141Z,892.00
2022-11-20T10:22:03.163Z,1020.00
2022-11-20T10:23:03.145Z,972.00
2022-11-20T10:24:03.129Z,852.00
2022-11-20T10:25:03.101Z,932.00
2022-11-20T10:26:03.123Z,908.00
2022-11-20T10:27:03.105Z,880.00
2022-11-20T10:28:03.111Z,880.00
2022-11-20T10:29:08.498Z,1004.00
2022-11-20T10:30:04.853Z,1060.00
2022-11-20T10:31:04.092Z,1220.00
2022-11-20T10:32:03.037Z,1312.00
2022-11-20T10:33:03.042Z,1484.00
2022-11-20T10:34:12.003Z,1600.00
2022-11-20T10:35:04.063Z,1652.00
2022-11-20T10:36:02.995Z,1412.00
2022-11-20T10:37:02.971Z,1536.00
2022-11-20T10:38:02.983Z,1556.00
2022-11-20T10:39:03.374Z,1476.00
2022-11-20T10:40:02.983Z,1584.00
2022-11-20T10:41:04.488Z,1700.00
2022-11-20T10:42:24.064Z,1772.00
2022-11-20T10:43:03.987Z,2364.00
2022-11-20T10:44:02.953Z,3244.00
2022-11-20T10:45:06.801Z,3088.00
2022-11-20T10:46:02.904Z,2204.00
2022-11-20T10:47:03.594Z,1668.00
2022-11-20T10:48:02.898Z,1208.00
2022-11-20T10:49:03.523Z,972.00
2022-11-20T10:50:02.935Z,868.00
2022-11-20T10:51:03.542Z,952.00
2022-11-20T10:52:02.838Z,832.00
2022-11-20T10:53:03.527Z,1028.00
2022-11-20T10:54:02.818Z,1120.00
2022-11-20T10:55:02.845Z,1400.00
2022-11-20T10:56:02.786Z,1576.00
2022-11-20T10:57:03.479Z,1752.00
2022-11-20T10:58:02.775Z,1712.00
2022-11-20T10:59:02.753Z,1688.00
2022-11-20T11:00:02.760Z,1840.00
2022-11-20T11:01:02.805Z,2024.00
2022-11-20T11:02:03.555Z,2340.00
2022-11-20T11:03:02.706Z,2344.00
2022-11-20T11:04:02.700Z,2764.00
2022-11-20T11:05:02.688Z,2636.00
2022-11-20T11:06:02.675Z,2876.00
2022-11-20T11:07:02.743Z,2540.00
2022-11-20T11:08:02.657Z,2784.00
2022-11-20T11:09:02.636Z,2472.00
2022-11-20T11:10:02.639Z,2272.00
2022-11-20T11:11:02.657Z,2640.00
2022-11-20T11:12:06.926Z,1944.00
2022-11-20T11:13:02.625Z,876.00
2022-11-20T11:14:02.596Z,1296.00
2022-11-20T11:15:02.577Z,1596.00
2022-11-20T11:16:02.565Z,1664.00
2022-11-20T11:17:02.590Z,2408.00
2022-11-20T11:18:02.606Z,2588.00
2022-11-20T11:19:02.559Z,2972.00
2022-11-20T11:20:02.534Z,3728.00
2022-11-20T11:21:02.508Z,4012.00
2022-11-20T11:22:02.518Z,4692.00
2022-11-20T11:23:02.506Z,5212.00
2022-11-20T11:24:19.923Z,5712.00
2022-11-20T11:25:03.468Z,6472.00
2022-11-20T11:26:02.458Z,7120.00
2022-11-20T11:27:02.459Z,7424.00
2022-11-20T11:28:02.439Z,7572.00
2022-11-20T11:29:02.449Z,6640.00
2022-11-20T11:30:02.448Z,8648.00
2022-11-20T11:31:02.425Z,14400.00
2022-11-20T11:32:02.400Z,16224.00
2022-11-20T11:33:02.437Z,8540.00
2022-11-20T11:34:02.360Z,5300.00
2022-11-20T11:35:02.370Z,18368.00
2022-11-20T11:36:02.380Z,22080.00
2022-11-20T11:37:02.352Z,26240.00
2022-11-20T11:38:02.350Z,29504.00
2022-11-20T11:39:02.311Z,31456.00
2022-11-20T11:40:25.670Z,31968.00
2022-11-20T11:41:03.355Z,32064.00
2022-11-20T11:42:02.303Z,32544.00
2022-11-20T11:43:02.273Z,33152.00
2022-11-20T11:44:02.281Z,32864.00
2022-11-20T11:45:02.251Z,32608.00
2022-11-20T11:46:02.246Z,32768.00
2022-11-20T11:47:02.261Z,30208.00
2022-11-20T11:48:02.216Z,30976.00
2022-11-20T11:49:02.207Z,30368.00
2022-11-20T11:50:02.234Z,20768.00
2022-11-20T11:51:02.195Z,27936.00
2022-11-20T11:52:02.184Z,27456.00
2022-11-20T11:53:02.223Z,26144.00
2022-11-20T11:54:02.172Z,8384.00
2022-11-20T11:55:05.918Z,25120.00
2022-11-20T11:56:03.272Z,23648.00
2022-11-20T11:57:02.148Z,25024.00
2022-11-20T11:58:02.106Z,26496.00
2022-11-20T11:59:02.115Z,12352.00
2022-11-20T12:00:02.105Z,30752.00
2022-11-20T12:01:02.078Z,4044.00
2022-11-20T12:02:02.160Z,4000.00
2022-11-20T12:03:02.075Z,40960.00
2022-11-20T12:04:03.107Z,4168.00
2022-11-20T12:05:02.059Z,5552.00
2022-11-20T12:06:02.028Z,4056.00
2022-11-20T12:07:13.228Z,40608.00
2022-11-20T12:08:05.044Z,21120.00
2022-11-20T12:09:02.016Z,33312.00
2022-11-20T12:10:01.998Z,34016.00
2022-11-20T12:11:01.978Z,42080.00
2022-11-20T12:12:02.016Z,42912.00
2022-11-20T12:13:01.960Z,41760.00
2022-11-20T12:14:01.953Z,38272.00
2022-11-20T12:15:01.929Z,43808.00
2022-11-20T12:16:01.938Z,31968.00
2022-11-20T12:17:01.912Z,32512.00
2022-11-20T12:18:01.932Z,39488.00
2022-11-20T12:19:01.891Z,40256.00
2022-11-20T12:20:01.912Z,33344.00
2022-11-20T12:21:01.882Z,38752.00
2022-11-20T12:22:04.897Z,39136.00
2022-11-20T12:23:01.842Z,49184.00
2022-11-20T12:24:01.833Z,37248.00
2022-11-20T12:25:01.824Z,36768.00
2022-11-20T12:26:01.825Z,31040.00
2022-11-20T12:27:01.819Z,33312.00
2022-11-20T12:28:01.806Z,36992.00
2022-11-20T12:29:01.775Z,33824.00
2022-11-20T12:30:01.784Z,37568.00
2022-11-20T12:31:01.755Z,32384.00
2022-11-20T12:32:01.775Z,32928.00
2022-11-20T12:33:01.746Z,34784.00
2022-11-20T12:34:01.766Z,19488.00
2022-11-20T12:35:01.715Z,38400.00
2022-11-20T12:36:01.718Z,37472.00
2022-11-20T12:37:01.706Z,44544.00
2022-11-20T12:38:01.706Z,36352.00
2022-11-20T12:39:01.678Z,37280.00
2022-11-20T12:40:01.736Z,36256.00
2022-11-20T12:41:01.669Z,30688.00
2022-11-20T12:42:01.710Z,3384.00
2022-11-20T12:43:01.638Z,3500.00
2022-11-20T12:44:03.205Z,3300.00
2022-11-20T12:45:01.630Z,13340.00